sensor_id;sensor_type;location;lat;lon;timestamp;P1;durP1;ratioP1;P2;durP2;ratioP2
42066;SDS011;27734;47.028;28.820;2024-03-02T00:01:34;33.67;;;17.03;;
42066;SDS011;27734;47.028;28.820;2024-03-02T00:04:06;35.27;;;17.30;;
42066;SDS011;27734;47.028;28.820;2024-03-02T00:06:39;34.85;;;17.27;;
42066;SDS011;27734;47.028;28.820;2024-03-02T00:09:10;37.77;;;17.17;;
42066;SDS011;27734;47.028;28.820;2024-03-02T00:11:44;36.08;;;16.90;;
42066;SDS011;27734;47.028;28.820;2024-03-02T00:14:15;33.55;;;16.85;;
42066;SDS011;27734;47.028;28.820;2024-03-02T00:16:47;33.23;;;16.27;;
42066;SDS011;27734;47.028;28.820;2024-03-02T00:19:18;34.10;;;15.60;;
42066;SDS011;27734;47.028;28.820;2024-03-02T00:21:49;37.03;;;17.40;;
42066;SDS011;27734;47.028;28.820;2024-03-02T00:24:21;35.03;;;17.57;;
42066;SDS011;27734;47.028;28.820;2024-03-02T00:27:01;37.03;;;17.63;;
42066;SDS011;27734;47.028;28.820;2024-03-02T00:29:39;36.80;;;17.70;;
42066;SDS011;27734;47.028;28.820;2024-03-02T00:32:12;38.53;;;17.33;;
42066;SDS011;27734;47.028;28.820;2024-03-02T00:34:45;34.23;;;16.73;;
42066;SDS011;27734;47.028;28.820;2024-03-02T00:37:16;35.10;;;17.03;;
42066;SDS011;27734;47.028;28.820;2024-03-02T00:39:50;34.47;;;16.53;;
42066;SDS011;27734;47.028;28.820;2024-03-02T00:42:21;34.58;;;16.35;;
42066;SDS011;27734;47.028;28.820;2024-03-02T00:44:52;34.27;;;16.77;;
42066;SDS011;27734;47.028;28.820;2024-03-02T00:47:24;39.40;;;17.20;;
42066;SDS011;27734;47.028;28.820;2024-03-02T00:49:55;34.90;;;16.67;;
42066;SDS011;27734;47.028;28.820;2024-03-02T00:52:26;33.95;;;16.95;;
42066;SDS011;27734;47.028;28.820;2024-03-02T00:54:58;38.13;;;17.73;;
42066;SDS011;27734;47.028;28.820;2024-03-02T00:57:29;37.00;;;17.70;;
42066;SDS011;27734;47.028;28.820;2024-03-02T01:00:03;37.13;;;17.83;;
42066;SDS011;27734;47.028;28.820;2024-03-02T01:02:38;36.50;;;17.27;;
42066;SDS011;27734;47.028;28.820;2024-03-02T01:05:10;38.27;;;17.27;;
42066;SDS011;27734;47.028;28.820;2024-03-02T01:07:41;34.90;;;16.73;;
42066;SDS011;27734;47.028;28.820;2024-03-02T01:10:12;32.00;;;17.23;;
42066;SDS011;27734;47.028;28.820;2024-03-02T01:12:43;33.33;;;17.97;;
42066;SDS011;27734;47.028;28.820;2024-03-02T01:15:15;32.13;;;15.83;;
42066;SDS011;27734;47.028;28.820;2024-03-02T01:17:46;35.13;;;18.30;;
42066;SDS011;27734;47.028;28.820;2024-03-02T01:20:18;35.77;;;18.10;;
42066;SDS011;27734;47.028;28.820;2024-03-02T01:22:50;34.67;;;16.87;;
42066;SDS011;27734;47.028;28.820;2024-03-02T01:25:21;34.83;;;17.00;;
42066;SDS011;27734;47.028;28.820;2024-03-02T01:27:53;35.43;;;18.53;;
42066;SDS011;27734;47.028;28.820;2024-03-02T01:30:24;35.57;;;18.13;;
42066;SDS011;27734;47.028;28.820;2024-03-02T01:32:55;37.17;;;17.60;;
42066;SDS011;27734;47.028;28.820;2024-03-02T01:35:28;32.77;;;16.37;;
42066;SDS011;27734;47.028;28.820;2024-03-02T01:38:01;38.13;;;17.70;;
42066;SDS011;27734;47.028;28.820;2024-03-02T01:40:34;36.93;;;17.33;;
42066;SDS011;27734;47.028;28.820;2024-03-02T01:43:06;33.57;;;16.33;;
42066;SDS011;27734;47.028;28.820;2024-03-02T01:45:37;34.47;;;16.43;;
42066;SDS011;27734;47.028;28.820;2024-03-02T01:48:08;37.13;;;17.77;;
42066;SDS011;27734;47.028;28.820;2024-03-02T01:50:40;33.93;;;16.17;;
42066;SDS011;27734;47.028;28.820;2024-03-02T01:53:12;37.20;;;16.65;;
42066;SDS011;27734;47.028;28.820;2024-03-02T01:55:43;32.37;;;16.97;;
42066;SDS011;27734;47.028;28.820;2024-03-02T01:58:14;34.60;;;16.13;;
42066;SDS011;27734;47.028;28.820;2024-03-02T02:00:46;34.00;;;15.83;;
42066;SDS011;27734;47.028;28.820;2024-03-02T02:03:18;37.53;;;17.03;;
42066;SDS011;27734;47.028;28.820;2024-03-02T02:05:50;40.10;;;17.17;;
42066;SDS011;27734;47.028;28.820;2024-03-02T02:08:21;33.87;;;16.50;;
42066;SDS011;27734;47.028;28.820;2024-03-02T02:10:52;35.73;;;16.37;;
42066;SDS011;27734;47.028;28.820;2024-03-02T02:13:24;37.07;;;18.13;;
42066;SDS011;27734;47.028;28.820;2024-03-02T02:15:55;33.63;;;17.07;;
42066;SDS011;27734;47.028;28.820;2024-03-02T02:18:33;33.47;;;17.33;;
42066;SDS011;27734;47.028;28.820;2024-03-02T02:21:04;35.03;;;17.53;;
42066;SDS011;27734;47.028;28.820;2024-03-02T02:23:36;32.33;;;16.03;;
42066;SDS011;27734;47.028;28.820;2024-03-02T02:26:07;33.80;;;16.70;;
42066;SDS011;27734;47.028;28.820;2024-03-02T02:28:38;37.67;;;16.73;;
42066;SDS011;27734;47.028;28.820;2024-03-02T02:31:15;33.60;;;16.30;;
42066;SDS011;27734;47.028;28.820;2024-03-02T02:33:46;34.07;;;16.20;;
42066;SDS011;27734;47.028;28.820;2024-03-02T02:36:17;32.33;;;16.50;;
42066;SDS011;27734;47.028;28.820;2024-03-02T02:38:48;35.27;;;16.67;;
42066;SDS011;27734;47.028;28.820;2024-03-02T02:41:20;35.33;;;16.03;;
42066;SDS011;27734;47.028;28.820;2024-03-02T02:43:51;34.80;;;16.63;;
42066;SDS011;27734;47.028;28.820;2024-03-02T02:46:22;38.80;;;16.10;;
42066;SDS011;27734;47.028;28.820;2024-03-02T02:48:53;35.07;;;16.90;;
42066;SDS011;27734;47.028;28.820;2024-03-02T02:51:25;38.33;;;19.93;;
42066;SDS011;27734;47.028;28.820;2024-03-02T02:53:56;35.50;;;18.47;;
42066;SDS011;27734;47.028;28.820;2024-03-02T02:56:27;35.97;;;17.67;;
42066;SDS011;27734;47.028;28.820;2024-03-02T02:58:58;36.20;;;16.27;;
42066;SDS011;27734;47.028;28.820;2024-03-02T03:01:29;36.30;;;17.13;;
42066;SDS011;27734;47.028;28.820;2024-03-02T03:04:00;32.13;;;15.60;;
42066;SDS011;27734;47.028;28.820;2024-03-02T03:06:31;27.77;;;14.67;;
42066;SDS011;27734;47.028;28.820;2024-03-02T03:09:03;33.57;;;16.33;;
42066;SDS011;27734;47.028;28.820;2024-03-02T03:11:34;34.80;;;16.57;;
42066;SDS011;27734;47.028;28.820;2024-03-02T03:14:05;35.27;;;16.07;;
42066;SDS011;27734;47.028;28.820;2024-03-02T03:16:36;38.57;;;17.37;;
42066;SDS011;27734;47.028;28.820;2024-03-02T03:19:07;31.50;;;15.57;;
42066;SDS011;27734;47.028;28.820;2024-03-02T03:21:39;33.20;;;16.10;;
42066;SDS011;27734;47.028;28.820;2024-03-02T03:24:10;35.63;;;16.00;;
42066;SDS011;27734;47.028;28.820;2024-03-02T03:26:41;32.70;;;15.50;;
42066;SDS011;27734;47.028;28.820;2024-03-02T03:29:13;31.87;;;15.73;;
42066;SDS011;27734;47.028;28.820;2024-03-02T03:31:44;34.47;;;16.97;;
42066;SDS011;27734;47.028;28.820;2024-03-02T03:34:15;35.67;;;16.97;;
42066;SDS011;27734;47.028;28.820;2024-03-02T03:36:46;34.77;;;17.10;;
42066;SDS011;27734;47.028;28.820;2024-03-02T03:39:17;36.97;;;18.13;;
42066;SDS011;27734;47.028;28.820;2024-03-02T03:41:49;34.80;;;16.70;;
42066;SDS011;27734;47.028;28.820;2024-03-02T03:44:20;31.67;;;15.87;;
42066;SDS011;27734;47.028;28.820;2024-03-02T03:46:51;34.40;;;16.50;;
42066;SDS011;27734;47.028;28.820;2024-03-02T03:49:22;37.03;;;19.47;;
42066;SDS011;27734;47.028;28.820;2024-03-02T03:51:54;43.55;;;20.55;;
42066;SDS011;27734;47.028;28.820;2024-03-02T03:54:25;51.40;;;26.20;;
42066;SDS011;27734;47.028;28.820;2024-03-02T03:56:56;56.83;;;28.80;;
42066;SDS011;27734;47.028;28.820;2024-03-02T03:59:27;62.30;;;28.23;;
42066;SDS011;27734;47.028;28.820;2024-03-02T04:01:59;60.97;;;27.87;;
42066;SDS011;27734;47.028;28.820;2024-03-02T04:04:30;68.43;;;30.97;;
42066;SDS011;27734;47.028;28.820;2024-03-02T04:07:01;55.37;;;25.73;;
42066;SDS011;27734;47.028;28.820;2024-03-02T04:09:33;54.23;;;25.03;;
42066;SDS011;27734;47.028;28.820;2024-03-02T04:12:04;45.47;;;21.03;;
42066;SDS011;27734;47.028;28.820;2024-03-02T04:14:35;41.83;;;21.53;;
42066;SDS011;27734;47.028;28.820;2024-03-02T04:17:07;39.87;;;18.83;;
42066;SDS011;27734;47.028;28.820;2024-03-02T04:19:38;41.47;;;19.57;;
42066;SDS011;27734;47.028;28.820;2024-03-02T04:22:09;39.63;;;17.97;;
42066;SDS011;27734;47.028;28.820;2024-03-02T04:24:41;36.53;;;17.27;;
42066;SDS011;27734;47.028;28.820;2024-03-02T04:27:12;36.17;;;15.73;;
42066;SDS011;27734;47.028;28.820;2024-03-02T04:29:43;33.37;;;17.87;;
42066;SDS011;27734;47.028;28.820;2024-03-02T04:32:14;35.97;;;16.73;;
42066;SDS011;27734;47.028;28.820;2024-03-02T04:34:48;31.07;;;15.50;;
42066;SDS011;27734;47.028;28.820;2024-03-02T04:37:19;32.27;;;15.43;;
42066;SDS011;27734;47.028;28.820;2024-03-02T04:39:50;32.00;;;15.55;;
42066;SDS011;27734;47.028;28.820;2024-03-02T04:42:21;33.20;;;15.57;;
42066;SDS011;27734;47.028;28.820;2024-03-02T04:44:53;30.53;;;15.40;;
42066;SDS011;27734;47.028;28.820;2024-03-02T04:47:24;30.33;;;15.63;;
42066;SDS011;27734;47.028;28.820;2024-03-02T04:49:55;34.90;;;15.03;;
42066;SDS011;27734;47.028;28.820;2024-03-02T04:52:28;30.63;;;15.17;;
42066;SDS011;27734;47.028;28.820;2024-03-02T04:54:59;33.20;;;14.50;;
42066;SDS011;27734;47.028;28.820;2024-03-02T04:57:57;35.43;;;16.10;;
42066;SDS011;27734;47.028;28.820;2024-03-02T05:00:28;30.30;;;14.63;;
42066;SDS011;27734;47.028;28.820;2024-03-02T05:03:00;26.23;;;14.03;;
42066;SDS011;27734;47.028;28.820;2024-03-02T05:05:31;30.10;;;15.10;;
42066;SDS011;27734;47.028;28.820;2024-03-02T05:08:07;40.10;;;15.50;;
42066;SDS011;27734;47.028;28.820;2024-03-02T05:10:40;35.13;;;15.83;;
42066;SDS011;27734;47.028;28.820;2024-03-02T05:13:11;33.40;;;14.37;;
42066;SDS011;27734;47.028;28.820;2024-03-02T05:15:42;31.90;;;15.33;;
42066;SDS011;27734;47.028;28.820;2024-03-02T05:18:16;30.00;;;14.33;;
42066;SDS011;27734;47.028;28.820;2024-03-02T05:20:47;37.20;;;16.27;;
42066;SDS011;27734;47.028;28.820;2024-03-02T05:23:18;32.83;;;15.17;;
42066;SDS011;27734;47.028;28.820;2024-03-02T05:25:49;34.23;;;14.60;;
42066;SDS011;27734;47.028;28.820;2024-03-02T05:28:21;33.37;;;14.63;;
42066;SDS011;27734;47.028;28.820;2024-03-02T05:30:52;30.20;;;14.20;;
42066;SDS011;27734;47.028;28.820;2024-03-02T05:33:23;28.87;;;14.53;;
42066;SDS011;27734;47.028;28.820;2024-03-02T05:35:54;30.13;;;14.83;;
42066;SDS011;27734;47.028;28.820;2024-03-02T05:38:25;31.17;;;15.10;;
42066;SDS011;27734;47.028;28.820;2024-03-02T05:40:56;36.17;;;15.13;;
42066;SDS011;27734;47.028;28.820;2024-03-02T05:43:27;33.90;;;15.03;;
42066;SDS011;27734;47.028;28.820;2024-03-02T05:45:58;34.40;;;15.80;;
42066;SDS011;27734;47.028;28.820;2024-03-02T05:48:30;28.90;;;14.37;;
42066;SDS011;27734;47.028;28.820;2024-03-02T05:51:01;31.77;;;15.27;;
42066;SDS011;27734;47.028;28.820;2024-03-02T05:53:32;34.33;;;16.17;;
42066;SDS011;27734;47.028;28.820;2024-03-02T05:56:06;30.60;;;14.95;;
42066;SDS011;27734;47.028;28.820;2024-03-02T05:58:40;37.08;;;16.75;;
42066;SDS011;27734;47.028;28.820;2024-03-02T06:01:26;33.47;;;16.13;;
42066;SDS011;27734;47.028;28.820;2024-03-02T06:03:59;37.05;;;15.45;;
42066;SDS011;27734;47.028;28.820;2024-03-02T06:06:30;33.23;;;15.70;;
42066;SDS011;27734;47.028;28.820;2024-03-02T06:09:02;34.30;;;15.77;;
42066;SDS011;27734;47.028;28.820;2024-03-02T06:11:36;32.90;;;15.57;;
42066;SDS011;27734;47.028;28.820;2024-03-02T06:14:08;30.55;;;14.90;;
42066;SDS011;27734;47.028;28.820;2024-03-02T06:16:40;35.33;;;14.90;;
42066;SDS011;27734;47.028;28.820;2024-03-02T06:19:11;35.53;;;15.67;;
42066;SDS011;27734;47.028;28.820;2024-03-02T06:21:42;34.67;;;15.27;;
42066;SDS011;27734;47.028;28.820;2024-03-02T06:24:16;36.67;;;15.43;;
42066;SDS011;27734;47.028;28.820;2024-03-02T06:29:17;30.13;;;15.50;;
42066;SDS011;27734;47.028;28.820;2024-03-02T06:31:48;34.57;;;16.73;;
42066;SDS011;27734;47.028;28.820;2024-03-02T06:34:19;31.75;;;15.30;;
42066;SDS011;27734;47.028;28.820;2024-03-02T06:36:50;34.80;;;16.17;;
42066;SDS011;27734;47.028;28.820;2024-03-02T06:39:22;36.40;;;17.00;;
42066;SDS011;27734;47.028;28.820;2024-03-02T06:41:54;33.87;;;15.67;;
42066;SDS011;27734;47.028;28.820;2024-03-02T06:44:25;35.95;;;15.70;;
42066;SDS011;27734;47.028;28.820;2024-03-02T06:46:56;38.03;;;17.73;;
42066;SDS011;27734;47.028;28.820;2024-03-02T06:49:27;33.47;;;16.17;;
42066;SDS011;27734;47.028;28.820;2024-03-02T06:51:58;35.03;;;17.30;;
42066;SDS011;27734;47.028;28.820;2024-03-02T06:54:29;36.50;;;18.13;;
42066;SDS011;27734;47.028;28.820;2024-03-02T06:57:03;33.10;;;16.97;;
42066;SDS011;27734;47.028;28.820;2024-03-02T06:59:34;34.83;;;17.80;;
42066;SDS011;27734;47.028;28.820;2024-03-02T07:02:05;34.43;;;17.40;;
42066;SDS011;27734;47.028;28.820;2024-03-02T07:04:37;34.47;;;16.57;;
42066;SDS011;27734;47.028;28.820;2024-03-02T07:07:08;34.93;;;17.00;;
42066;SDS011;27734;47.028;28.820;2024-03-02T07:09:42;34.77;;;17.03;;
42066;SDS011;27734;47.028;28.820;2024-03-02T07:12:13;38.37;;;18.03;;
42066;SDS011;27734;47.028;28.820;2024-03-02T07:14:44;41.50;;;18.83;;
42066;SDS011;27734;47.028;28.820;2024-03-02T07:17:39;40.43;;;18.40;;
42066;SDS011;27734;47.028;28.820;2024-03-02T07:20:11;45.60;;;19.17;;
42066;SDS011;27734;47.028;28.820;2024-03-02T07:22:42;39.00;;;18.33;;
42066;SDS011;27734;47.028;28.820;2024-03-02T07:25:13;41.00;;;19.30;;
42066;SDS011;27734;47.028;28.820;2024-03-02T07:27:45;34.73;;;18.20;;
42066;SDS011;27734;47.028;28.820;2024-03-02T07:30:16;37.00;;;18.60;;
42066;SDS011;27734;47.028;28.820;2024-03-02T07:32:49;37.07;;;17.47;;
42066;SDS011;27734;47.028;28.820;2024-03-02T07:35:21;38.27;;;19.20;;
42066;SDS011;27734;47.028;28.820;2024-03-02T07:40:25;34.40;;;18.70;;
42066;SDS011;27734;47.028;28.820;2024-03-02T07:42:56;32.95;;;17.70;;
42066;SDS011;27734;47.028;28.820;2024-03-02T07:45:27;36.20;;;18.55;;
42066;SDS011;27734;47.028;28.820;2024-03-02T07:47:58;34.93;;;18.30;;
42066;SDS011;27734;47.028;28.820;2024-03-02T07:50:32;36.97;;;18.63;;
42066;SDS011;27734;47.028;28.820;2024-03-02T07:53:03;37.35;;;18.50;;
42066;SDS011;27734;47.028;28.820;2024-03-02T07:55:36;39.67;;;19.43;;
42066;SDS011;27734;47.028;28.820;2024-03-02T07:58:07;38.73;;;18.97;;
42066;SDS011;27734;47.028;28.820;2024-03-02T08:00:40;39.93;;;18.70;;
42066;SDS011;27734;47.028;28.820;2024-03-02T08:03:14;38.20;;;18.70;;
42066;SDS011;27734;47.028;28.820;2024-03-02T08:05:45;36.03;;;18.53;;
42066;SDS011;27734;47.028;28.820;2024-03-02T08:08:17;37.77;;;19.07;;
42066;SDS011;27734;47.028;28.820;2024-03-02T08:10:48;40.67;;;19.60;;
42066;SDS011;27734;47.028;28.820;2024-03-02T08:13:19;41.40;;;19.33;;
42066;SDS011;27734;47.028;28.820;2024-03-02T08:15:50;38.00;;;20.07;;
42066;SDS011;27734;47.028;28.820;2024-03-02T08:18:21;39.00;;;19.23;;
42066;SDS011;27734;47.028;28.820;2024-03-02T08:20:53;39.70;;;20.03;;
42066;SDS011;27734;47.028;28.820;2024-03-02T08:23:24;45.10;;;20.53;;
42066;SDS011;27734;47.028;28.820;2024-03-02T08:25:55;42.30;;;19.90;;
42066;SDS011;27734;47.028;28.820;2024-03-02T08:28:27;35.60;;;19.30;;
42066;SDS011;27734;47.028;28.820;2024-03-02T08:30:58;38.33;;;18.57;;
42066;SDS011;27734;47.028;28.820;2024-03-02T08:33:29;41.83;;;19.60;;
42066;SDS011;27734;47.028;28.820;2024-03-02T08:36:01;38.33;;;19.50;;
42066;SDS011;27734;47.028;28.820;2024-03-02T08:38:32;38.97;;;19.73;;
42066;SDS011;27734;47.028;28.820;2024-03-02T08:41:04;36.85;;;18.35;;
42066;SDS011;27734;47.028;28.820;2024-03-02T08:43:36;36.27;;;18.60;;
42066;SDS011;27734;47.028;28.820;2024-03-02T08:46:08;38.13;;;19.47;;
42066;SDS011;27734;47.028;28.820;2024-03-02T08:48:39;40.97;;;19.67;;
42066;SDS011;27734;47.028;28.820;2024-03-02T08:51:10;39.30;;;18.87;;
42066;SDS011;27734;47.028;28.820;2024-03-02T08:53:41;36.53;;;18.77;;
42066;SDS011;27734;47.028;28.820;2024-03-02T08:56:13;36.30;;;18.23;;
42066;SDS011;27734;47.028;28.820;2024-03-02T08:58:45;37.53;;;19.27;;
42066;SDS011;27734;47.028;28.820;2024-03-02T09:01:16;39.77;;;19.03;;
42066;SDS011;27734;47.028;28.820;2024-03-02T09:03:48;37.83;;;18.23;;
42066;SDS011;27734;47.028;28.820;2024-03-02T09:06:20;37.65;;;18.80;;
42066;SDS011;27734;47.028;28.820;2024-03-02T09:08:51;36.90;;;18.37;;
42066;SDS011;27734;47.028;28.820;2024-03-02T09:11:22;36.83;;;18.13;;
42066;SDS011;27734;47.028;28.820;2024-03-02T09:13:53;40.00;;;19.20;;
42066;SDS011;27734;47.028;28.820;2024-03-02T09:16:26;40.40;;;20.17;;
42066;SDS011;27734;47.028;28.820;2024-03-02T09:18:59;39.20;;;19.00;;
42066;SDS011;27734;47.028;28.820;2024-03-02T09:21:30;39.40;;;18.90;;
42066;SDS011;27734;47.028;28.820;2024-03-02T09:24:03;38.80;;;19.40;;
42066;SDS011;27734;47.028;28.820;2024-03-02T09:26:35;39.63;;;19.57;;
42066;SDS011;27734;47.028;28.820;2024-03-02T09:29:06;38.67;;;20.13;;
42066;SDS011;27734;47.028;28.820;2024-03-02T09:31:40;40.07;;;19.43;;
42066;SDS011;27734;47.028;28.820;2024-03-02T09:34:12;36.33;;;18.53;;
42066;SDS011;27734;47.028;28.820;2024-03-02T09:36:44;37.65;;;19.55;;
42066;SDS011;27734;47.028;28.820;2024-03-02T09:39:15;38.70;;;19.10;;
42066;SDS011;27734;47.028;28.820;2024-03-02T09:41:46;37.20;;;18.40;;
42066;SDS011;27734;47.028;28.820;2024-03-02T09:44:18;39.93;;;21.77;;
42066;SDS011;27734;47.028;28.820;2024-03-02T09:46:50;36.00;;;18.97;;
42066;SDS011;27734;47.028;28.820;2024-03-02T09:49:22;35.90;;;18.73;;
42066;SDS011;27734;47.028;28.820;2024-03-02T09:51:53;40.90;;;21.07;;
42066;SDS011;27734;47.028;28.820;2024-03-02T09:54:25;37.00;;;19.90;;
42066;SDS011;27734;47.028;28.820;2024-03-02T09:56:56;40.67;;;19.53;;
42066;SDS011;27734;47.028;28.820;2024-03-02T09:59:29;48.00;;;23.37;;
42066;SDS011;27734;47.028;28.820;2024-03-02T10:02:01;41.43;;;19.43;;
42066;SDS011;27734;47.028;28.820;2024-03-02T10:04:35;36.93;;;19.07;;
42066;SDS011;27734;47.028;28.820;2024-03-02T10:10:15;37.57;;;18.10;;
42066;SDS011;27734;47.028;28.820;2024-03-02T10:12:48;39.93;;;19.03;;
42066;SDS011;27734;47.028;28.820;2024-03-02T10:15:33;33.63;;;17.27;;
42066;SDS011;27734;47.028;28.820;2024-03-02T10:18:06;36.30;;;18.33;;
42066;SDS011;27734;47.028;28.820;2024-03-02T10:20:40;36.73;;;17.50;;
42066;SDS011;27734;47.028;28.820;2024-03-02T10:23:12;37.23;;;18.53;;
42066;SDS011;27734;47.028;28.820;2024-03-02T10:25:45;32.85;;;17.25;;
42066;SDS011;27734;47.028;28.820;2024-03-02T10:28:16;33.50;;;16.10;;
42066;SDS011;27734;47.028;28.820;2024-03-02T10:30:48;33.90;;;16.87;;
42066;SDS011;27734;47.028;28.820;2024-03-02T10:33:20;39.00;;;17.95;;
42066;SDS011;27734;47.028;28.820;2024-03-02T10:35:53;32.80;;;16.75;;
42066;SDS011;27734;47.028;28.820;2024-03-02T10:38:25;35.20;;;16.10;;
42066;SDS011;27734;47.028;28.820;2024-03-02T10:40:57;34.10;;;16.17;;
42066;SDS011;27734;47.028;28.820;2024-03-02T10:43:29;35.10;;;17.03;;
42066;SDS011;27734;47.028;28.820;2024-03-02T10:46:01;31.43;;;16.60;;
42066;SDS011;27734;47.028;28.820;2024-03-02T10:48:32;34.00;;;18.03;;
42066;SDS011;27734;47.028;28.820;2024-03-02T10:51:06;35.03;;;16.25;;
42066;SDS011;27734;47.028;28.820;2024-03-02T10:53:37;35.10;;;16.67;;
42066;SDS011;27734;47.028;28.820;2024-03-02T10:56:08;33.57;;;16.07;;
42066;SDS011;27734;47.028;28.820;2024-03-02T10:58:43;38.33;;;17.00;;
42066;SDS011;27734;47.028;28.820;2024-03-02T11:01:16;30.67;;;16.37;;
42066;SDS011;27734;47.028;28.820;2024-03-02T11:03:49;27.73;;;13.67;;
42066;SDS011;27734;47.028;28.820;2024-03-02T11:06:21;34.13;;;15.73;;
42066;SDS011;27734;47.028;28.820;2024-03-02T11:08:56;33.80;;;15.30;;
42066;SDS011;27734;47.028;28.820;2024-03-02T11:11:32;32.17;;;14.40;;
42066;SDS011;27734;47.028;28.820;2024-03-02T11:14:13;30.77;;;14.97;;
42066;SDS011;27734;47.028;28.820;2024-03-02T11:16:46;31.03;;;15.30;;
42066;SDS011;27734;47.028;28.820;2024-03-02T11:19:18;31.40;;;14.77;;
42066;SDS011;27734;47.028;28.820;2024-03-02T11:21:50;30.63;;;13.90;;
42066;SDS011;27734;47.028;28.820;2024-03-02T11:24:32;27.77;;;14.43;;
42066;SDS011;27734;47.028;28.820;2024-03-02T11:27:04;32.33;;;14.50;;
42066;SDS011;27734;47.028;28.820;2024-03-02T11:29:46;30.27;;;15.30;;
42066;SDS011;27734;47.028;28.820;2024-03-02T11:32:19;27.70;;;13.87;;
42066;SDS011;27734;47.028;28.820;2024-03-02T11:34:52;32.13;;;14.57;;
42066;SDS011;27734;47.028;28.820;2024-03-02T11:37:23;28.87;;;14.40;;
42066;SDS011;27734;47.028;28.820;2024-03-02T11:39:59;30.87;;;13.87;;
42066;SDS011;27734;47.028;28.820;2024-03-02T11:42:30;30.87;;;14.07;;
42066;SDS011;27734;47.028;28.820;2024-03-02T11:45:02;27.83;;;14.50;;
42066;SDS011;27734;47.028;28.820;2024-03-02T11:47:35;29.70;;;14.33;;
42066;SDS011;27734;47.028;28.820;2024-03-02T11:50:07;31.85;;;14.45;;
42066;SDS011;27734;47.028;28.820;2024-03-02T11:52:39;30.13;;;14.57;;
42066;SDS011;27734;47.028;28.820;2024-03-02T11:55:11;33.07;;;14.77;;
42066;SDS011;27734;47.028;28.820;2024-03-02T11:57:43;28.70;;;14.53;;
42066;SDS011;27734;47.028;28.820;2024-03-02T12:00:20;30.43;;;14.13;;
42066;SDS011;27734;47.028;28.820;2024-03-02T12:02:59;30.57;;;14.97;;
42066;SDS011;27734;47.028;28.820;2024-03-02T12:05:32;31.33;;;15.20;;
42066;SDS011;27734;47.028;28.820;2024-03-02T12:08:05;33.37;;;15.00;;
42066;SDS011;27734;47.028;28.820;2024-03-02T12:10:36;31.07;;;14.87;;
42066;SDS011;27734;47.028;28.820;2024-03-02T12:13:08;30.30;;;14.75;;
42066;SDS011;27734;47.028;28.820;2024-03-02T12:15:39;31.50;;;15.03;;
42066;SDS011;27734;47.028;28.820;2024-03-02T12:18:11;34.40;;;15.13;;
42066;SDS011;27734;47.028;28.820;2024-03-02T12:20:42;32.37;;;15.47;;
42066;SDS011;27734;47.028;28.820;2024-03-02T12:23:13;33.53;;;15.37;;
42066;SDS011;27734;47.028;28.820;2024-03-02T12:25:45;30.10;;;14.90;;
42066;SDS011;27734;47.028;28.820;2024-03-02T12:28:17;30.27;;;15.07;;
42066;SDS011;27734;47.028;28.820;2024-03-02T12:30:48;31.77;;;15.20;;
42066;SDS011;27734;47.028;28.820;2024-03-02T12:33:20;35.70;;;15.37;;
42066;SDS011;27734;47.028;28.820;2024-03-02T12:35:52;50.67;;;16.30;;
42066;SDS011;27734;47.028;28.820;2024-03-02T12:38:23;31.53;;;15.03;;
42066;SDS011;27734;47.028;28.820;2024-03-02T12:40:54;30.70;;;14.80;;
42066;SDS011;27734;47.028;28.820;2024-03-02T12:43:30;35.67;;;15.60;;
42066;SDS011;27734;47.028;28.820;2024-03-02T12:46:01;28.83;;;13.50;;
42066;SDS011;27734;47.028;28.820;2024-03-02T12:48:34;31.07;;;14.50;;
42066;SDS011;27734;47.028;28.820;2024-03-02T12:51:05;33.33;;;14.50;;
42066;SDS011;27734;47.028;28.820;2024-03-02T12:53:37;31.00;;;14.93;;
42066;SDS011;27734;47.028;28.820;2024-03-02T12:56:09;30.50;;;14.53;;
42066;SDS011;27734;47.028;28.820;2024-03-02T12:58:40;28.73;;;14.00;;
42066;SDS011;27734;47.028;28.820;2024-03-02T13:01:14;31.47;;;14.33;;
42066;SDS011;27734;47.028;28.820;2024-03-02T13:03:49;33.57;;;15.50;;
42066;SDS011;27734;47.028;28.820;2024-03-02T13:06:23;31.40;;;15.27;;
42066;SDS011;27734;47.028;28.820;2024-03-02T13:08:56;33.42;;;15.72;;
42066;SDS011;27734;47.028;28.820;2024-03-02T13:11:27;32.23;;;14.97;;
42066;SDS011;27734;47.028;28.820;2024-03-02T13:14:00;32.13;;;15.23;;
42066;SDS011;27734;47.028;28.820;2024-03-02T13:16:31;32.73;;;14.17;;
42066;SDS011;27734;47.028;28.820;2024-03-02T13:19:08;31.95;;;14.85;;
42066;SDS011;27734;47.028;28.820;2024-03-02T13:21:40;34.40;;;15.10;;
42066;SDS011;27734;47.028;28.820;2024-03-02T13:24:11;31.63;;;14.23;;
42066;SDS011;27734;47.028;28.820;2024-03-02T13:26:42;33.57;;;15.77;;
42066;SDS011;27734;47.028;28.820;2024-03-02T13:29:14;29.63;;;14.53;;
42066;SDS011;27734;47.028;28.820;2024-03-02T13:31:45;30.60;;;14.77;;
42066;SDS011;27734;47.028;28.820;2024-03-02T13:34:16;29.50;;;14.27;;
42066;SDS011;27734;47.028;28.820;2024-03-02T13:36:47;32.43;;;15.03;;
42066;SDS011;27734;47.028;28.820;2024-03-02T13:39:18;33.20;;;14.57;;
42066;SDS011;27734;47.028;28.820;2024-03-02T13:41:50;31.57;;;14.33;;
42066;SDS011;27734;47.028;28.820;2024-03-02T13:44:25;32.47;;;14.87;;
42066;SDS011;27734;47.028;28.820;2024-03-02T13:46:56;31.67;;;14.60;;
42066;SDS011;27734;47.028;28.820;2024-03-02T13:49:28;30.53;;;14.17;;
42066;SDS011;27734;47.028;28.820;2024-03-02T13:52:04;32.97;;;16.17;;
42066;SDS011;27734;47.028;28.820;2024-03-02T13:54:41;33.53;;;14.83;;
42066;SDS011;27734;47.028;28.820;2024-03-02T13:57:13;31.73;;;14.10;;
42066;SDS011;27734;47.028;28.820;2024-03-02T13:59:47;30.37;;;15.10;;
42066;SDS011;27734;47.028;28.820;2024-03-02T14:02:20;33.47;;;15.23;;
42066;SDS011;27734;47.028;28.820;2024-03-02T14:04:53;30.43;;;14.53;;
42066;SDS011;27734;47.028;28.820;2024-03-02T14:07:25;32.57;;;14.63;;
42066;SDS011;27734;47.028;28.820;2024-03-02T14:09:56;31.63;;;13.70;;
42066;SDS011;27734;47.028;28.820;2024-03-02T14:12:27;30.40;;;13.83;;
42066;SDS011;27734;47.028;28.820;2024-03-02T14:14:59;29.93;;;14.40;;
42066;SDS011;27734;47.028;28.820;2024-03-02T14:17:31;29.70;;;13.80;;
42066;SDS011;27734;47.028;28.820;2024-03-02T14:20:03;28.27;;;13.63;;
42066;SDS011;27734;47.028;28.820;2024-03-02T14:22:38;30.27;;;13.77;;
42066;SDS011;27734;47.028;28.820;2024-03-02T14:25:09;26.73;;;12.77;;
42066;SDS011;27734;47.028;28.820;2024-03-02T14:27:41;26.73;;;13.00;;
42066;SDS011;27734;47.028;28.820;2024-03-02T14:30:13;27.00;;;12.93;;
42066;SDS011;27734;47.028;28.820;2024-03-02T14:32:44;31.50;;;14.13;;
42066;SDS011;27734;47.028;28.820;2024-03-02T14:35:15;29.63;;;14.47;;
42066;SDS011;27734;47.028;28.820;2024-03-02T14:37:46;31.77;;;14.43;;
42066;SDS011;27734;47.028;28.820;2024-03-02T14:40:18;26.63;;;13.67;;
42066;SDS011;27734;47.028;28.820;2024-03-02T14:42:50;30.80;;;13.77;;
42066;SDS011;27734;47.028;28.820;2024-03-02T14:45:22;27.65;;;14.00;;